createdAt,value
2023-04-02T00:03:10.602Z,6.71
2023-04-02T00:08:29.522Z,7.58
2023-04-02T00:13:36.999Z,7.52
2023-04-02T00:18:42.303Z,7.36
2023-04-02T00:23:44.263Z,7.97
2023-04-02T00:28:45.872Z,7.28
2023-04-02T00:33:47.517Z,7.74
2023-04-02T00:38:49.091Z,7.03
2023-04-02T00:43:51.311Z,7.46
2023-04-02T00:49:00.406Z,7.85
2023-04-02T00:54:04.372Z,6.83
2023-04-02T00:59:26.554Z,7.54
2023-04-02T01:04:34.190Z,8.03
2023-04-02T01:10:33.079Z,7.88
2023-04-02T01:15:40.476Z,7.75
2023-04-02T01:20:47.726Z,7.42
2023-04-02T01:26:00.011Z,7.88
2023-04-02T01:31:01.883Z,7.90
2023-04-02T01:36:51.994Z,7.35
2023-04-02T01:42:14.257Z,7.95
2023-04-02T01:47:17.568Z,7.39
2023-04-02T01:52:25.520Z,7.22
2023-04-02T01:57:27.352Z,7.58
2023-04-02T02:02:28.912Z,6.98
2023-04-02T02:07:30.586Z,7.77
2023-04-02T02:12:32.037Z,8.05
2023-04-02T02:17:34.743Z,7.16
2023-04-02T02:22:38.771Z,7.71
2023-04-02T02:28:00.210Z,6.79
2023-04-02T02:33:06.568Z,7.26
2023-04-02T02:38:23.766Z,7.89
2023-04-02T02:43:25.438Z,7.82
2023-04-02T02:48:33.042Z,7.94
2023-04-02T02:53:34.499Z,7.13
2023-04-02T02:58:35.992Z,7.55
2023-04-02T03:03:37.718Z,6.50
2023-04-02T03:08:57.877Z,6.51
2023-04-02T03:14:06.741Z,7.11
2023-04-02T03:19:15.688Z,7.33
2023-04-02T03:24:41.682Z,7.51
2023-04-02T03:29:46.338Z,7.48
2023-04-02T03:34:55.710Z,7.19
2023-04-02T03:40:07.144Z,6.69
2023-04-02T03:45:19.401Z,6.89
2023-04-02T03:50:27.997Z,6.90
2023-04-02T03:55:33.961Z,7.60
2023-04-02T04:01:00.916Z,6.15
2023-04-02T04:06:09.579Z,6.29
2023-04-02T04:11:15.934Z,6.68
2023-04-02T04:16:20.736Z,6.63
2023-04-02T04:21:30.884Z,6.44
2023-04-02T04:26:42.722Z,6.90
2023-04-02T04:31:55.249Z,6.90
2023-04-02T04:37:01.804Z,6.21
2023-04-02T04:42:03.356Z,6.35
2023-04-02T04:47:07.437Z,7.01
2023-04-02T04:52:33.068Z,7.45
2023-04-02T04:57:36.212Z,7.85
2023-04-02T05:02:48.985Z,7.57
2023-04-02T05:07:59.797Z,7.67
2023-04-02T05:13:21.510Z,7.67
2023-04-02T05:18:22.798Z,7.13
2023-04-02T05:23:28.926Z,6.50
2023-04-02T05:28:50.516Z,6.44
2023-04-02T05:33:51.969Z,6.81
2023-04-02T05:38:53.541Z,7.61
2023-04-02T05:44:07.603Z,6.89
2023-04-02T05:49:11.776Z,7.14
2023-04-02T05:54:23.153Z,7.71
2023-04-02T05:59:27.201Z,7.81
2023-04-02T06:04:50.551Z,7.66
2023-04-02T06:10:04.940Z,7.52
2023-04-02T06:15:12.068Z,7.76
2023-04-02T06:20:15.646Z,7.75
2023-04-02T06:25:25.216Z,7.72
2023-04-02T06:30:31.405Z,7.69
2023-04-02T06:35:34.459Z,6.90
2023-04-02T06:40:41.919Z,6.95
2023-04-02T06:45:43.528Z,6.97
2023-04-02T06:51:09.221Z,7.73
2023-04-02T06:56:22.152Z,8.14
2023-04-02T07:01:28.574Z,8.33
2023-04-02T07:06:30.254Z,8.56
2023-04-02T07:11:31.707Z,7.54
2023-04-02T07:16:33.646Z,8.69
2023-04-02T07:21:35.310Z,7.56
2023-04-02T07:26:36.823Z,8.25
2023-04-02T07:31:39.054Z,8.33
2023-04-02T07:36:40.611Z,8.89
2023-04-02T07:41:55.220Z,8.24
2023-04-02T07:46:56.744Z,8.46
2023-04-02T07:51:58.231Z,8.25
2023-04-02T07:56:59.740Z,8.21
2023-04-02T08:02:02.346Z,8.75
2023-04-02T08:07:03.868Z,7.75
2023-04-02T08:12:05.457Z,8.62
2023-04-02T08:17:06.952Z,8.03
2023-04-02T08:22:08.410Z,9.05
2023-04-02T08:27:13.762Z,9.04
2023-04-02T08:32:18.101Z,9.10
2023-04-02T08:37:19.598Z,9.41
2023-04-02T08:43:02.871Z,9.23
2023-04-02T08:48:05.437Z,8.40
2023-04-02T08:53:12.597Z,7.99
2023-04-02T08:58:42.864Z,8.77
2023-04-02T09:03:47.930Z,8.92
2023-04-02T09:08:50.096Z,9.06
2023-04-02T09:13:55.924Z,8.92
2023-04-02T09:18:57.381Z,8.79
2023-04-02T09:23:58.834Z,9.22
2023-04-02T09:29:24.621Z,9.65
2023-04-02T09:34:27.881Z,9.07
2023-04-02T09:39:29.414Z,8.77
2023-04-02T09:44:31.143Z,9.05
2023-04-02T09:49:34.353Z,8.61
2023-04-02T09:54:41.688Z,9.65
2023-04-02T09:59:43.195Z,9.30
2023-04-02T10:04:47.686Z,8.49
2023-04-02T10:09:51.213Z,8.98
2023-04-02T10:14:52.712Z,7.97
2023-04-02T10:20:17.884Z,8.63
2023-04-02T10:25:20.419Z,9.48
2023-04-02T10:30:39.924Z,8.96
2023-04-02T10:35:58.057Z,8.92
2023-04-02T10:41:09.394Z,9.80
2023-04-02T10:46:29.377Z,10.08
2023-04-02T10:51:51.841Z,9.14
2023-04-02T10:56:53.449Z,9.36
2023-04-02T11:01:55.665Z,9.41
2023-04-02T11:07:11.084Z,9.80
2023-04-02T11:12:22.814Z,10.44
2023-04-02T11:17:24.300Z,9.92
2023-04-02T11:22:25.899Z,10.17
2023-04-02T11:27:29.173Z,10.05
2023-04-02T11:32:39.421Z,10.41
2023-04-02T11:37:45.373Z,10.20
2023-04-02T11:42:47.966Z,10.40
2023-04-02T11:48:01.625Z,10.84
2023-04-02T11:53:04.111Z,10.86
2023-04-02T11:58:14.482Z,11.45
2023-04-02T12:03:21.651Z,11.01
2023-04-02T12:08:28.171Z,11.44
2023-04-02T12:13:41.489Z,11.48
2023-04-02T12:18:53.713Z,11.70
2023-04-02T12:23:57.447Z,12.07
2023-04-02T12:29:21.674Z,12.29
2023-04-02T12:34:32.882Z,11.98
2023-04-02T12:39:34.433Z,12.29
2023-04-02T12:44:35.948Z,11.62
2023-04-02T12:49:40.660Z,12.06
2023-04-02T12:54:52.488Z,12.08
2023-04-02T13:00:23.450Z,11.80
2023-04-02T13:05:36.272Z,12.48
2023-04-02T13:10:37.939Z,12.48
2023-04-02T13:15:39.633Z,12.32
2023-04-02T13:20:41.721Z,11.72
2023-04-02T13:25:43.863Z,12.27
2023-04-02T13:30:46.118Z,11.78
2023-04-02T13:35:47.605Z,11.70
2023-04-02T13:40:49.106Z,11.96
2023-04-02T13:45:51.635Z,11.61
2023-04-02T13:50:53.221Z,11.68
2023-04-02T13:55:54.693Z,11.85
2023-04-02T14:00:56.747Z,11.82
2023-04-02T14:06:06.955Z,11.68
2023-04-02T14:11:18.891Z,11.50
2023-04-02T14:16:36.628Z,11.16
2023-04-02T14:21:41.606Z,11.29
2023-04-02T14:27:04.676Z,12.12
2023-04-02T14:32:21.119Z,12.04
2023-04-02T14:38:07.274Z,11.74
2023-04-02T14:43:25.771Z,11.02
2023-04-02T14:48:51.206Z,11.72
2023-04-02T14:54:02.877Z,11.72
2023-04-02T14:59:17.107Z,11.10
2023-04-02T15:04:26.612Z,11.39
2023-04-02T15:09:46.820Z,11.74
2023-04-02T15:14:50.775Z,11.72
2023-04-02T15:19:52.239Z,10.58
2023-04-02T15:25:03.868Z,11.10
2023-04-02T15:30:08.988Z,10.52
2023-04-02T15:35:34.577Z,11.36
2023-04-02T15:40:57.288Z,11.38
2023-04-02T15:46:17.131Z,10.89
2023-04-02T15:51:43.700Z,10.54
2023-04-02T15:57:02.096Z,10.65
2023-04-02T16:02:37.712Z,11.33
2023-04-02T16:08:07.067Z,11.51
2023-04-02T16:13:33.860Z,11.33
2023-04-02T16:18:59.155Z,11.28
2023-04-02T16:24:00.779Z,12.04
2023-04-02T16:29:19.384Z,11.70
2023-04-02T16:34:30.334Z,11.65
2023-04-02T16:39:36.733Z,11.45
2023-04-02T16:44:56.558Z,11.67
2023-04-02T16:50:12.898Z,11.98
2023-04-02T16:55:39.307Z,12.44
2023-04-02T17:00:57.648Z,12.49
2023-04-02T17:06:06.051Z,12.18
2023-04-02T17:11:08.748Z,12.42
2023-04-02T17:16:21.730Z,12.37
2023-04-02T17:21:27.604Z,12.22
2023-04-02T17:26:30.044Z,11.80
2023-04-02T17:31:34.119Z,11.96
2023-04-02T17:37:03.421Z,11.54
2023-04-02T17:42:10.322Z,11.73
2023-04-02T17:47:27.387Z,11.40
2023-04-02T17:52:32.923Z,11.74
2023-04-02T17:58:07.686Z,11.78
2023-04-02T18:03:17.968Z,11.20
2023-04-02T18:08:58.540Z,11.14
2023-04-02T18:14:03.898Z,11.29
2023-04-02T18:19:16.218Z,11.44
2023-04-02T18:24:28.432Z,11.09
2023-04-02T18:29:32.150Z,10.32
2023-04-02T18:34:52.033Z,10.82
2023-04-02T18:39:56.987Z,10.66
2023-04-02T18:45:02.023Z,10.33
2023-04-02T18:50:18.674Z,10.51
2023-04-02T18:55:21.939Z,10.40
2023-04-02T19:00:34.622Z,10.37
2023-04-02T19:06:05.925Z,10.94
2023-04-02T19:11:11.312Z,10.73
2023-04-02T19:16:25.762Z,11.01
2023-04-02T19:21:56.036Z,10.39
2023-04-02T19:27:02.746Z,10.52
2023-04-02T19:32:29.262Z,10.76
2023-04-02T19:37:41.535Z,11.02
2023-04-02T19:42:49.702Z,10.49
2023-04-02T19:47:51.235Z,10.87
2023-04-02T19:52:53.328Z,10.22
2023-04-02T19:58:01.282Z,10.41
2023-04-02T20:03:14.463Z,10.57
2023-04-02T20:08:16.006Z,10.64
2023-04-02T20:13:18.085Z,10.79
2023-04-02T20:18:20.430Z,10.61
2023-04-02T20:23:21.910Z,10.54
2023-04-02T20:28:24.292Z,10.41
2023-04-02T20:33:26.180Z,10.54
2023-04-02T20:38:27.927Z,10.74
2023-04-02T20:43:29.394Z,10.52
2023-04-02T20:48:32.171Z,10.24
2023-04-02T20:53:34.511Z,10.24
2023-04-02T20:58:36.270Z,10.48
2023-04-02T21:03:39.673Z,10.57
2023-04-02T21:08:41.257Z,10.43
2023-04-02T21:13:44.212Z,10.42
2023-04-02T21:18:45.892Z,10.23
2023-04-02T21:23:47.372Z,10.36
2023-04-02T21:28:49.021Z,10.31
2023-04-02T21:33:51.938Z,10.47
2023-04-02T21:39:00.695Z,10.43
2023-04-02T21:44:03.249Z,10.34
2023-04-02T21:49:04.808Z,10.52
2023-04-02T21:54:06.305Z,10.40
2023-04-02T21:59:08.662Z,10.38
2023-04-02T22:04:14.508Z,10.28
2023-04-02T22:09:17.891Z,10.20
2023-04-02T22:14:19.340Z,10.19
2023-04-02T22:19:20.864Z,10.24
2023-04-02T22:24:22.522Z,10.26
2023-04-02T22:29:24.074Z,10.16
2023-04-02T22:34:25.522Z,10.13
2023-04-02T22:39:26.980Z,10.07
2023-04-02T22:44:28.425Z,10.29
2023-04-02T22:49:29.929Z,9.97
2023-04-02T22:54:31.389Z,10.08
2023-04-02T22:59:32.844Z,10.21
2023-04-02T23:04:34.340Z,10.12
2023-04-02T23:09:36.332Z,10.28
2023-04-02T23:14:37.816Z,10.04
2023-04-02T23:19:39.291Z,9.98
2023-04-02T23:24:40.856Z,10.13
2023-04-02T23:29:42.304Z,10.16
2023-04-02T23:34:43.788Z,10.12
2023-04-02T23:39:45.245Z,10.01
2023-04-02T23:44:46.696Z,9.72
2023-04-02T23:49:48.166Z,9.77
2023-04-02T23:54:49.628Z,9.92
2023-04-02T23:59:51.078Z,9.95
